createdAt,value
2023-10-20T00:00:51.905Z,14.57
2023-10-20T00:03:57.789Z,14.55
2023-10-20T00:07:04.456Z,14.57
2023-10-20T00:10:12.858Z,14.59
2023-10-20T00:13:19.006Z,14.57
2023-10-20T00:16:27.422Z,14.54
2023-10-20T00:19:33.384Z,14.45
2023-10-20T00:22:39.653Z,14.43
2023-10-20T00:25:44.389Z,14.43
2023-10-20T00:28:51.228Z,14.41
2023-10-20T00:31:57.806Z,14.41
2023-10-20T00:35:05.197Z,14.43
2023-10-20T00:38:11.913Z,14.48
2023-10-20T00:41:18.720Z,14.51
2023-10-20T00:44:25.112Z,14.54
2023-10-20T00:47:32.462Z,14.56
2023-10-20T00:50:40.290Z,14.60
2023-10-20T00:53:48.900Z,14.67
2023-10-20T00:56:55.941Z,14.67
2023-10-20T01:00:04.982Z,14.61
2023-10-20T01:03:12.690Z,14.58
2023-10-20T01:06:19.087Z,14.56
2023-10-20T01:09:27.790Z,14.54
2023-10-20T01:12:33.919Z,14.48
2023-10-20T01:15:40.115Z,14.51
2023-10-20T01:18:44.946Z,14.51
2023-10-20T01:21:50.791Z,14.48
2023-10-20T01:24:56.662Z,14.52
2023-10-20T01:28:02.709Z,14.56
2023-10-20T01:31:08.673Z,14.59
2023-10-20T01:34:14.576Z,14.62
2023-10-20T01:37:21.556Z,14.62
2023-10-20T01:40:28.736Z,14.64
2023-10-20T01:43:34.976Z,14.67
2023-10-20T01:46:40.543Z,14.69
2023-10-20T01:49:46.789Z,14.71
2023-10-20T01:52:52.741Z,14.74
2023-10-20T01:55:58.739Z,14.77
2023-10-20T01:59:04.992Z,14.79
2023-10-20T02:02:10.390Z,14.81
2023-10-20T02:05:17.248Z,14.80
2023-10-20T02:08:23.367Z,14.83
2023-10-20T02:11:28.043Z,14.85
2023-10-20T02:14:34.597Z,14.83
2023-10-20T02:17:40.967Z,14.84
2023-10-20T02:20:47.083Z,14.84
2023-10-20T02:23:53.485Z,14.85
2023-10-20T02:26:59.846Z,14.85
2023-10-20T02:30:06.688Z,14.85
2023-10-20T02:33:12.426Z,14.83
2023-10-20T02:36:20.936Z,14.82
2023-10-20T02:39:27.972Z,14.81
2023-10-20T02:42:34.393Z,14.82
2023-10-20T02:45:48.693Z,14.84
2023-10-20T02:48:54.219Z,14.85
2023-10-20T02:52:00.395Z,14.85
2023-10-20T02:55:05.094Z,14.86
2023-10-20T02:58:12.132Z,14.84
2023-10-20T03:01:20.387Z,14.81
2023-10-20T03:04:26.562Z,14.76
2023-10-20T03:07:30.591Z,14.73
2023-10-20T03:10:36.574Z,14.69
2023-10-20T03:13:42.346Z,14.72
2023-10-20T03:16:48.493Z,14.73
2023-10-20T03:19:52.713Z,14.74
2023-10-20T03:22:58.482Z,14.74
2023-10-20T03:26:04.427Z,14.76
2023-10-20T03:29:11.216Z,14.76
2023-10-20T03:32:17.332Z,14.73
2023-10-20T03:35:24.064Z,14.70
2023-10-20T03:38:30.549Z,14.67
2023-10-20T03:41:36.633Z,14.65
2023-10-20T03:44:43.909Z,14.63
2023-10-20T03:47:51.470Z,14.59
2023-10-20T03:50:58.043Z,14.55
2023-10-20T03:54:06.494Z,14.53
2023-10-20T03:57:16.973Z,14.53
2023-10-20T04:00:29.856Z,14.52
2023-10-20T04:03:36.068Z,14.52
2023-10-20T04:06:42.328Z,14.53
2023-10-20T04:09:48.400Z,14.50
2023-10-20T04:12:53.920Z,14.47
2023-10-20T04:16:00.127Z,14.45
2023-10-20T04:19:07.668Z,14.39
2023-10-20T04:22:14.533Z,14.38
2023-10-20T04:25:22.173Z,14.39
2023-10-20T04:28:34.123Z,14.40
2023-10-20T04:31:57.608Z,14.42
2023-10-20T04:35:21.187Z,14.43
2023-10-20T04:38:44.433Z,14.43
2023-10-20T04:41:57.014Z,14.40
2023-10-20T04:45:16.914Z,14.35
2023-10-20T04:48:36.707Z,14.32
2023-10-20T04:51:59.554Z,14.26
2023-10-20T04:55:19.952Z,14.23
2023-10-20T04:58:36.188Z,14.18
2023-10-20T05:01:49.012Z,14.14
2023-10-20T05:04:54.844Z,14.12
2023-10-20T05:08:06.197Z,14.13
2023-10-20T05:11:12.666Z,14.15
2023-10-20T05:14:18.824Z,14.16
2023-10-20T05:17:23.405Z,14.17
2023-10-20T05:20:29.085Z,14.15
2023-10-20T05:23:36.521Z,14.17
2023-10-20T05:26:42.365Z,14.17
2023-10-20T05:29:48.745Z,14.15
2023-10-20T05:32:53.323Z,14.14
2023-10-20T05:36:04.755Z,14.11
2023-10-20T05:39:15.340Z,14.13
2023-10-20T05:42:21.603Z,14.12
2023-10-20T05:45:30.436Z,14.12
2023-10-20T05:48:36.252Z,14.11
2023-10-20T05:51:42.051Z,14.06
2023-10-20T05:54:48.167Z,14.04
2023-10-20T05:57:54.170Z,14.06
2023-10-20T06:01:07.951Z,14.09
2023-10-20T06:04:14.011Z,14.14
2023-10-20T06:07:20.244Z,14.19
2023-10-20T06:10:24.697Z,14.24
2023-10-20T06:13:30.335Z,14.21
2023-10-20T06:16:36.125Z,14.24
2023-10-20T06:19:41.997Z,14.29
2023-10-20T06:22:47.868Z,14.33
2023-10-20T06:25:53.419Z,14.37
2023-10-20T06:28:59.093Z,14.42
2023-10-20T06:32:12.250Z,14.48
2023-10-20T06:35:18.484Z,14.54
2023-10-20T06:38:32.045Z,14.60
2023-10-20T06:41:38.108Z,14.67
2023-10-20T06:44:44.496Z,14.74
2023-10-20T06:47:50.599Z,14.82
2023-10-20T06:50:57.329Z,14.89
2023-10-20T06:54:03.363Z,14.95
2023-10-20T06:57:07.926Z,15.02
2023-10-20T07:00:19.237Z,15.07
2023-10-20T07:03:25.618Z,15.17
2023-10-20T07:06:31.723Z,15.27
2023-10-20T07:09:38.400Z,15.35
2023-10-20T07:12:44.838Z,15.42
2023-10-20T07:15:57.928Z,15.49
2023-10-20T07:19:04.037Z,15.58
2023-10-20T07:22:10.288Z,15.68
2023-10-20T07:25:14.985Z,15.79
2023-10-20T07:28:21.310Z,15.88
2023-10-20T07:31:27.766Z,16.00
2023-10-20T07:34:35.145Z,16.06
2023-10-20T07:37:41.213Z,16.16
2023-10-20T07:40:47.169Z,16.23
2023-10-20T07:43:53.023Z,16.28
2023-10-20T07:46:58.983Z,16.31
2023-10-20T07:50:05.264Z,16.37
2023-10-20T07:53:11.355Z,16.44
2023-10-20T07:56:15.762Z,16.53
2023-10-20T07:59:22.244Z,16.57
2023-10-20T08:02:28.684Z,16.71
2023-10-20T08:05:37.156Z,16.87
2023-10-20T08:08:43.331Z,17.03
2023-10-20T08:11:48.059Z,17.18
2023-10-20T08:14:54.458Z,17.30
2023-10-20T08:18:00.526Z,17.45
2023-10-20T08:21:12.008Z,17.59
2023-10-20T08:24:17.971Z,17.72
2023-10-20T08:27:24.420Z,17.89
2023-10-20T08:30:30.353Z,18.05
2023-10-20T08:33:36.289Z,18.21
2023-10-20T08:36:42.725Z,18.35
2023-10-20T08:39:49.624Z,18.50
2023-10-20T08:42:56.129Z,18.65
2023-10-20T08:46:01.952Z,18.79
2023-10-20T08:49:09.945Z,18.94
2023-10-20T08:52:18.570Z,19.07
2023-10-20T08:55:25.253Z,19.16
2023-10-20T08:58:32.353Z,19.28
2023-10-20T09:01:38.858Z,19.38
2023-10-20T09:04:44.985Z,19.49
2023-10-20T09:07:56.015Z,19.60
2023-10-20T09:11:02.282Z,19.69
2023-10-20T09:14:10.341Z,19.80
2023-10-20T09:17:25.026Z,19.91
2023-10-20T09:20:31.088Z,20.00
2023-10-20T09:23:35.848Z,20.08
2023-10-20T09:26:42.673Z,20.11
2023-10-20T09:29:49.130Z,20.22
2023-10-20T09:32:55.395Z,20.33
2023-10-20T09:36:01.976Z,20.42
2023-10-20T09:39:12.474Z,20.51
2023-10-20T09:42:26.281Z,20.60
2023-10-20T09:45:37.740Z,20.68
2023-10-20T09:48:44.656Z,20.76
2023-10-20T09:51:53.838Z,20.84
2023-10-20T09:55:01.264Z,20.95
2023-10-20T09:58:08.365Z,21.05
2023-10-20T10:01:19.221Z,21.17
2023-10-20T10:04:30.122Z,21.27
2023-10-20T10:07:37.711Z,21.38
2023-10-20T10:10:43.901Z,21.48
2023-10-20T10:13:56.290Z,21.57
2023-10-20T10:17:02.758Z,21.71
2023-10-20T10:20:20.501Z,21.83
2023-10-20T10:23:31.510Z,21.97
2023-10-20T10:26:45.650Z,22.10
2023-10-20T10:29:54.843Z,22.23
2023-10-20T10:33:02.124Z,22.35
2023-10-20T10:36:11.661Z,22.48
2023-10-20T10:39:32.983Z,22.62
2023-10-20T10:42:44.324Z,22.77
2023-10-20T10:45:55.330Z,22.90
2023-10-20T10:49:11.328Z,23.04
2023-10-20T10:52:17.615Z,23.14
2023-10-20T10:55:25.941Z,23.22
2023-10-20T10:58:31.962Z,23.32
2023-10-20T11:01:38.619Z,23.40
2023-10-20T11:04:45.558Z,23.46
2023-10-20T11:08:04.920Z,23.49
2023-10-20T11:11:13.998Z,23.51
2023-10-20T11:14:24.051Z,23.52
2023-10-20T11:17:30.117Z,23.53
2023-10-20T11:20:39.459Z,23.54
2023-10-20T11:23:53.193Z,23.54
2023-10-20T11:27:00.537Z,23.53
2023-10-20T11:30:08.114Z,23.52
2023-10-20T11:33:16.732Z,23.52
2023-10-20T11:36:23.282Z,23.52
2023-10-20T11:39:30.241Z,23.52
2023-10-20T11:42:35.899Z,23.52
2023-10-20T11:45:41.648Z,23.53
2023-10-20T11:48:48.732Z,23.54
2023-10-20T11:51:54.902Z,23.56
2023-10-20T11:55:01.333Z,23.53
2023-10-20T11:58:06.950Z,23.51
2023-10-20T12:01:12.912Z,23.51
2023-10-20T12:04:18.511Z,23.51
2023-10-20T12:07:24.659Z,23.48
2023-10-20T12:10:30.758Z,23.46
2023-10-20T12:13:38.270Z,23.46
2023-10-20T12:16:44.199Z,23.45
2023-10-20T12:19:50.385Z,23.41
2023-10-20T12:23:00.181Z,23.38
2023-10-20T12:26:06.105Z,23.35
2023-10-20T12:29:10.085Z,23.33
2023-10-20T12:32:15.691Z,23.27
2023-10-20T12:35:22.289Z,23.27
2023-10-20T12:38:28.636Z,23.25
2023-10-20T12:41:35.024Z,23.19
2023-10-20T12:44:40.931Z,23.17
2023-10-20T12:47:45.207Z,23.19
2023-10-20T12:50:51.400Z,23.18
2023-10-20T12:53:57.304Z,23.21
2023-10-20T12:57:02.377Z,23.24
2023-10-20T13:00:11.754Z,23.22
2023-10-20T13:03:17.630Z,23.26
2023-10-20T13:06:23.361Z,23.29
2023-10-20T13:09:29.136Z,23.30
2023-10-20T13:12:34.798Z,23.31
2023-10-20T13:15:40.538Z,23.34
2023-10-20T13:18:46.253Z,23.36
2023-10-20T13:21:51.975Z,23.39
2023-10-20T13:24:57.793Z,23.41
2023-10-20T13:28:05.485Z,23.44
2023-10-20T13:31:12.982Z,23.48
2023-10-20T13:34:21.099Z,23.51
2023-10-20T13:37:25.232Z,23.54
2023-10-20T13:40:30.856Z,23.53
2023-10-20T13:43:36.498Z,23.57
2023-10-20T13:46:42.276Z,23.59
2023-10-20T13:49:46.695Z,23.58
2023-10-20T13:52:52.317Z,23.52
2023-10-20T13:55:58.005Z,23.49
2023-10-20T13:59:03.692Z,23.47
2023-10-20T14:02:09.829Z,23.43
2023-10-20T14:05:19.987Z,23.35
2023-10-20T14:08:26.184Z,23.29
2023-10-20T14:11:32.134Z,23.22
2023-10-20T14:14:36.336Z,23.17
2023-10-20T14:17:42.114Z,23.10
2023-10-20T14:20:48.020Z,23.08
2023-10-20T14:23:52.337Z,23.05
2023-10-20T14:27:00.134Z,22.97
2023-10-20T14:30:07.444Z,22.94
2023-10-20T14:33:13.288Z,22.92
2023-10-20T14:36:19.655Z,22.88
2023-10-20T14:39:25.960Z,22.84
2023-10-20T14:42:31.598Z,22.79
2023-10-20T14:45:37.256Z,22.71
2023-10-20T14:48:43.008Z,22.65
2023-10-20T14:51:47.334Z,22.58
2023-10-20T14:54:52.982Z,22.49
2023-10-20T14:57:58.836Z,22.44
2023-10-20T15:01:04.478Z,22.38
2023-10-20T15:04:26.815Z,22.31
2023-10-20T15:07:37.754Z,22.24
2023-10-20T15:10:43.983Z,22.17
2023-10-20T15:13:48.376Z,22.11
2023-10-20T15:16:55.856Z,22.00
2023-10-20T15:20:02.882Z,21.95
2023-10-20T15:23:17.323Z,21.93
2023-10-20T15:26:22.805Z,21.89
2023-10-20T15:29:28.429Z,21.84
2023-10-20T15:32:35.334Z,21.81
2023-10-20T15:35:43.169Z,21.76
2023-10-20T15:38:50.623Z,21.70
2023-10-20T15:41:57.862Z,21.63
2023-10-20T15:45:04.540Z,21.55
2023-10-20T15:48:11.057Z,21.49
2023-10-20T15:51:19.323Z,21.43
2023-10-20T15:54:25.338Z,21.37
2023-10-20T15:57:31.152Z,21.29
2023-10-20T16:00:37.614Z,21.22
2023-10-20T16:03:45.223Z,21.15
2023-10-20T16:06:51.224Z,21.09
2023-10-20T16:09:57.183Z,21.05
2023-10-20T16:13:01.199Z,20.99
2023-10-20T16:16:07.708Z,20.90
2023-10-20T16:19:13.382Z,20.89
2023-10-20T16:22:19.174Z,20.87
2023-10-20T16:25:24.754Z,20.84
2023-10-20T16:28:30.376Z,20.83
2023-10-20T16:31:36.149Z,20.82
2023-10-20T16:34:40.579Z,20.83
2023-10-20T16:37:46.638Z,20.80
2023-10-20T16:40:53.720Z,20.83
2023-10-20T16:43:59.770Z,20.83
2023-10-20T16:47:05.663Z,20.81
2023-10-20T16:50:10.167Z,20.80
2023-10-20T16:53:15.748Z,20.75
2023-10-20T16:56:21.652Z,20.74
2023-10-20T16:59:27.670Z,20.72
2023-10-20T17:02:33.836Z,20.69
2023-10-20T17:05:42.553Z,20.68
2023-10-20T17:08:48.300Z,20.66
2023-10-20T17:11:54.257Z,20.61
2023-10-20T17:14:58.982Z,20.54
2023-10-20T17:18:07.633Z,20.46
2023-10-20T17:21:14.420Z,20.42
2023-10-20T17:24:20.432Z,20.37
2023-10-20T17:27:24.727Z,20.35
2023-10-20T17:30:30.512Z,20.30
2023-10-20T17:33:39.361Z,20.30
2023-10-20T17:36:45.410Z,20.27
2023-10-20T17:39:50.208Z,20.23
2023-10-20T17:42:56.014Z,20.15
2023-10-20T17:46:06.378Z,20.12
2023-10-20T17:49:12.144Z,20.10
2023-10-20T17:52:18.108Z,20.07
2023-10-20T17:55:22.771Z,20.01
2023-10-20T17:58:28.555Z,19.96
2023-10-20T18:01:34.591Z,19.97
2023-10-20T18:04:40.464Z,19.95
2023-10-20T18:07:46.274Z,19.93
2023-10-20T18:10:52.056Z,19.91
2023-10-20T18:13:57.914Z,19.89
2023-10-20T18:17:04.225Z,19.86
2023-10-20T18:20:13.619Z,19.84
2023-10-20T18:23:19.585Z,19.86
2023-10-20T18:26:24.980Z,19.86
2023-10-20T18:29:30.923Z,19.83
2023-10-20T18:32:37.332Z,19.86
2023-10-20T18:35:43.521Z,19.87
2023-10-20T18:38:49.316Z,19.82
2023-10-20T18:41:54.931Z,19.79
2023-10-20T18:45:02.210Z,19.80
2023-10-20T18:48:09.240Z,19.83
2023-10-20T18:51:16.768Z,19.83
2023-10-20T18:54:22.516Z,19.82
2023-10-20T18:57:28.619Z,19.78
2023-10-20T19:00:35.713Z,19.73
2023-10-20T19:03:41.861Z,19.68
2023-10-20T19:06:53.054Z,19.67
2023-10-20T19:09:59.113Z,19.62
2023-10-20T19:13:05.510Z,19.57
2023-10-20T19:16:11.619Z,19.55
2023-10-20T19:19:18.270Z,19.53
2023-10-20T19:22:24.184Z,19.46
2023-10-20T19:25:30.372Z,19.41
2023-10-20T19:28:39.326Z,19.38
2023-10-20T19:31:45.650Z,19.35
2023-10-20T19:34:52.221Z,19.33
2023-10-20T19:37:57.834Z,19.31
2023-10-20T19:41:03.589Z,19.30
2023-10-20T19:44:09.695Z,19.27
2023-10-20T19:47:15.297Z,19.23
2023-10-20T19:50:21.394Z,19.19
2023-10-20T19:53:27.190Z,19.18
2023-10-20T19:56:33.264Z,19.19
2023-10-20T19:59:39.743Z,19.18
2023-10-20T20:02:45.718Z,19.16
2023-10-20T20:05:50.502Z,19.12
2023-10-20T20:08:56.582Z,19.06
2023-10-20T20:12:02.367Z,19.06
2023-10-20T20:15:10.226Z,19.05
2023-10-20T20:18:16.131Z,19.05
2023-10-20T20:21:20.673Z,19.02
2023-10-20T20:24:26.656Z,18.92
2023-10-20T20:27:32.636Z,18.88
2023-10-20T20:30:38.185Z,18.80
2023-10-20T20:33:44.070Z,18.72
2023-10-20T20:36:48.365Z,18.68
2023-10-20T20:39:53.884Z,18.64
2023-10-20T20:42:59.848Z,18.66
2023-10-20T20:46:06.130Z,18.68
2023-10-20T20:49:11.760Z,18.69
2023-10-20T20:52:17.729Z,18.67
2023-10-20T20:55:23.282Z,18.64
2023-10-20T20:58:28.954Z,18.62
2023-10-20T21:01:34.793Z,18.60
2023-10-20T21:04:40.514Z,18.58
2023-10-20T21:07:46.292Z,18.57
2023-10-20T21:10:51.907Z,18.55
2023-10-20T21:13:57.868Z,18.53
2023-10-20T21:17:03.791Z,18.52
2023-10-20T21:20:11.217Z,18.51
2023-10-20T21:23:17.735Z,18.51
2023-10-20T21:26:24.500Z,18.50
2023-10-20T21:29:30.239Z,18.50
2023-10-20T21:32:36.176Z,18.48
2023-10-20T21:35:45.165Z,18.44
2023-10-20T21:38:51.226Z,18.41
2023-10-20T21:41:57.974Z,18.37
2023-10-20T21:45:04.013Z,18.35
2023-10-20T21:48:10.794Z,18.34
2023-10-20T21:51:17.283Z,18.34
2023-10-20T21:54:22.981Z,18.34
2023-10-20T21:57:28.781Z,18.33
2023-10-20T22:00:37.871Z,18.33
2023-10-20T22:03:43.907Z,18.30
2023-10-20T22:06:49.765Z,18.26
2023-10-20T22:09:55.767Z,18.21
2023-10-20T22:13:01.521Z,18.20
2023-10-20T22:16:08.349Z,18.19
2023-10-20T22:19:14.290Z,18.17
2023-10-20T22:22:19.944Z,18.16
2023-10-20T22:25:26.048Z,18.14
2023-10-20T22:28:32.360Z,18.16
2023-10-20T22:31:38.465Z,18.14
2023-10-20T22:34:44.295Z,18.15
2023-10-20T22:37:49.620Z,18.15
2023-10-20T22:40:55.374Z,18.11
2023-10-20T22:44:01.354Z,18.14
2023-10-20T22:47:06.027Z,18.13
2023-10-20T22:50:19.144Z,18.09
2023-10-20T22:53:25.018Z,18.11
2023-10-20T22:56:32.260Z,18.10
2023-10-20T22:59:37.997Z,18.10
2023-10-20T23:02:44.938Z,18.12
2023-10-20T23:05:50.934Z,18.13
2023-10-20T23:08:56.783Z,18.15
2023-10-20T23:12:02.521Z,18.18
2023-10-20T23:15:10.716Z,18.22
2023-10-20T23:18:16.750Z,18.21
2023-10-20T23:21:22.714Z,18.23
2023-10-20T23:24:28.453Z,18.26
2023-10-20T23:27:34.229Z,18.28
2023-10-20T23:30:39.832Z,18.33
2023-10-20T23:33:45.557Z,18.39
2023-10-20T23:36:51.391Z,18.44
2023-10-20T23:39:57.679Z,18.46
2023-10-20T23:43:03.412Z,18.46
2023-10-20T23:46:09.195Z,18.46
2023-10-20T23:49:15.947Z,18.47
2023-10-20T23:52:21.794Z,18.48
2023-10-20T23:55:30.387Z,18.47
2023-10-20T23:58:36.181Z,18.44
